This is the latest recevied weather packets stored in our database for station/object YT1XN-8. If no packets are shown the sender has not sent any weather packets the latest 10 day(s).
| Time | Temp. | Humidity | Pressure | Rain* | Wind** | Luminosity | Snow |
|---|---|---|---|---|---|---|---|
| 1777878701 | 15° C | 64% | 1020.8 hPa | 0 mm | - | - | - |
| 1777878643 | 15° C | 65% | 1020.9 hPa | 0 mm | - | - | - |
| 1777878041 | 14.44° C | 64% | 1020.8 hPa | 0 mm | - | - | - |
| 1777877444 | 13.89° C | 66% | 1020.9 hPa | 0 mm | - | - | - |
| 1777877381 | 13.33° C | 66% | 1020.8 hPa | 0 mm | - | - | - |
| 1777876843 | 13.33° C | 67% | 1020.8 hPa | 0 mm | - | - | - |
| 1777876721 | 12.78° C | 67% | 1020.8 hPa | 0 mm | - | - | - |
| 1777876242 | 12.78° C | 67% | 1020.7 hPa | 0 mm | - | - | - |
| 1777876061 | 12.22° C | 68% | 1020.8 hPa | 0 mm | - | - | - |
| 1777875642 | 11.67° C | 68% | 1020.7 hPa | 0 mm | - | - | - |
| 1777875401 | 11.67° C | 69% | 1020.8 hPa | 0 mm | - | - | - |
| 1777875042 | 11.11° C | 69% | 1020.7 hPa | 0 mm | - | - | - |
| 1777874741 | 11.11° C | 68% | 1020.7 hPa | 0 mm | - | - | - |
| 1777874443 | 11.11° C | 69% | 1020.7 hPa | 0 mm | - | - | - |
| 1777874081 | 10.56° C | 68% | 1020.7 hPa | 0 mm | - | - | - |
| 1777873842 | 10.56° C | 68% | 1020.7 hPa | 0 mm | - | - | - |
| 1777873421 | 10.56° C | 67% | 1020.8 hPa | 0 mm | - | - | - |
| 1777873242 | 10° C | 67% | 1020.7 hPa | 0 mm | - | - | - |
| 1777872761 | 10° C | 68% | 1020.9 hPa | 0 mm | - | - | - |
| 1777872642 | 10° C | 69% | 1020.9 hPa | 0 mm | - | - | - |
| 1777872101 | 10.56° C | 65% | 1020.8 hPa | 0 mm | - | - | - |
| 1777872043 | 10.56° C | 64% | 1020.7 hPa | 0 mm | - | - | - |
| 1777871441 | 10.56° C | 63% | 1020.7 hPa | 0 mm | - | - | - |
| 1777870844 | 10° C | 67% | 1020.8 hPa | 0 mm | - | - | - |
| 1777870781 | 10° C | 67% | 1020.8 hPa | 0 mm | - | - | - |
* Rain latest hour (hover to see other rain measurements)
** Current wind speed in m/s (hover to see current wind gust speed)